sensor_id;sensor_type;location;lat;lon;timestamp;P1;durP1;ratioP1;P2;durP2;ratioP2
908;SDS011;441;51.192;6.788;2023-06-10T00:01:28;26.70;;;25.40;;
908;SDS011;441;51.192;6.788;2023-06-10T00:03:55;27.93;;;26.37;;
908;SDS011;441;51.192;6.788;2023-06-10T00:06:22;27.40;;;26.00;;
908;SDS011;441;51.192;6.788;2023-06-10T00:08:49;28.23;;;26.83;;
908;SDS011;441;51.192;6.788;2023-06-10T00:11:16;26.83;;;25.37;;
908;SDS011;441;51.192;6.788;2023-06-10T00:13:44;27.23;;;25.73;;
908;SDS011;441;51.192;6.788;2023-06-10T00:16:11;28.00;;;26.37;;
908;SDS011;441;51.192;6.788;2023-06-10T00:18:38;28.47;;;26.97;;
908;SDS011;441;51.192;6.788;2023-06-10T00:21:05;27.70;;;26.37;;
908;SDS011;441;51.192;6.788;2023-06-10T00:23:31;27.43;;;26.13;;
908;SDS011;441;51.192;6.788;2023-06-10T00:26:02;27.23;;;25.83;;
908;SDS011;441;51.192;6.788;2023-06-10T00:28:29;26.73;;;25.33;;
908;SDS011;441;51.192;6.788;2023-06-10T00:30:58;28.10;;;26.70;;
908;SDS011;441;51.192;6.788;2023-06-10T00:33:25;27.83;;;26.33;;
908;SDS011;441;51.192;6.788;2023-06-10T00:35:52;28.03;;;26.53;;
908;SDS011;441;51.192;6.788;2023-06-10T00:38:18;27.67;;;26.17;;
908;SDS011;441;51.192;6.788;2023-06-10T00:40:45;27.00;;;25.67;;
908;SDS011;441;51.192;6.788;2023-06-10T00:43:12;28.17;;;26.20;;
908;SDS011;441;51.192;6.788;2023-06-10T00:45:39;27.67;;;26.27;;
908;SDS011;441;51.192;6.788;2023-06-10T00:48:07;27.47;;;26.07;;
908;SDS011;441;51.192;6.788;2023-06-10T00:50:35;27.20;;;25.80;;
908;SDS011;441;51.192;6.788;2023-06-10T00:53:05;27.63;;;26.20;;
908;SDS011;441;51.192;6.788;2023-06-10T00:55:32;28.17;;;26.83;;
908;SDS011;441;51.192;6.788;2023-06-10T00:57:59;28.33;;;26.80;;
908;SDS011;441;51.192;6.788;2023-06-10T01:00:27;27.77;;;26.37;;
908;SDS011;441;51.192;6.788;2023-06-10T01:02:53;27.13;;;25.73;;
908;SDS011;441;51.192;6.788;2023-06-10T01:05:22;28.07;;;26.67;;
908;SDS011;441;51.192;6.788;2023-06-10T01:07:50;28.30;;;26.90;;
908;SDS011;441;51.192;6.788;2023-06-10T01:10:24;27.37;;;25.77;;
908;SDS011;441;51.192;6.788;2023-06-10T01:12:55;27.43;;;26.03;;
908;SDS011;441;51.192;6.788;2023-06-10T01:15:27;30.57;;;29.03;;
908;SDS011;441;51.192;6.788;2023-06-10T01:17:56;29.13;;;27.67;;
908;SDS011;441;51.192;6.788;2023-06-10T01:20:25;27.53;;;26.13;;
908;SDS011;441;51.192;6.788;2023-06-10T01:22:54;28.63;;;26.93;;
908;SDS011;441;51.192;6.788;2023-06-10T01:25:23;27.20;;;25.90;;
908;SDS011;441;51.192;6.788;2023-06-10T01:27:53;27.73;;;26.33;;
908;SDS011;441;51.192;6.788;2023-06-10T01:30:25;29.33;;;27.40;;
908;SDS011;441;51.192;6.788;2023-06-10T01:32:58;29.00;;;27.50;;
908;SDS011;441;51.192;6.788;2023-06-10T01:35:28;27.63;;;26.33;;
908;SDS011;441;51.192;6.788;2023-06-10T01:37:58;29.80;;;28.40;;
908;SDS011;441;51.192;6.788;2023-06-10T01:40:27;32.20;;;30.57;;
908;SDS011;441;51.192;6.788;2023-06-10T01:42:55;30.73;;;29.13;;
908;SDS011;441;51.192;6.788;2023-06-10T01:45:22;31.07;;;29.57;;
908;SDS011;441;51.192;6.788;2023-06-10T01:47:49;31.17;;;29.77;;
908;SDS011;441;51.192;6.788;2023-06-10T01:50:16;32.67;;;30.97;;
908;SDS011;441;51.192;6.788;2023-06-10T01:52:43;31.93;;;30.37;;
908;SDS011;441;51.192;6.788;2023-06-10T01:55:11;32.23;;;30.53;;
908;SDS011;441;51.192;6.788;2023-06-10T01:57:38;31.10;;;29.50;;
908;SDS011;441;51.192;6.788;2023-06-10T02:00:05;32.47;;;30.77;;
908;SDS011;441;51.192;6.788;2023-06-10T02:02:33;32.40;;;30.80;;
908;SDS011;441;51.192;6.788;2023-06-10T02:05:00;31.10;;;29.60;;
908;SDS011;441;51.192;6.788;2023-06-10T02:07:27;31.63;;;29.90;;
908;SDS011;441;51.192;6.788;2023-06-10T02:09:54;32.97;;;31.23;;
908;SDS011;441;51.192;6.788;2023-06-10T02:12:23;32.93;;;31.23;;
908;SDS011;441;51.192;6.788;2023-06-10T02:14:50;33.10;;;31.40;;
908;SDS011;441;51.192;6.788;2023-06-10T02:17:16;28.47;;;26.87;;
908;SDS011;441;51.192;6.788;2023-06-10T02:19:44;28.60;;;27.00;;
908;SDS011;441;51.192;6.788;2023-06-10T02:22:19;29.10;;;27.40;;
908;SDS011;441;51.192;6.788;2023-06-10T02:24:46;28.53;;;27.00;;
908;SDS011;441;51.192;6.788;2023-06-10T02:27:14;28.77;;;27.10;;
908;SDS011;441;51.192;6.788;2023-06-10T02:29:42;29.53;;;28.00;;
908;SDS011;441;51.192;6.788;2023-06-10T02:32:09;28.53;;;26.93;;
908;SDS011;441;51.192;6.788;2023-06-10T02:34:36;28.57;;;26.97;;
908;SDS011;441;51.192;6.788;2023-06-10T02:37:03;29.50;;;27.77;;
908;SDS011;441;51.192;6.788;2023-06-10T02:39:30;28.30;;;26.70;;
908;SDS011;441;51.192;6.788;2023-06-10T02:41:57;28.07;;;26.57;;
908;SDS011;441;51.192;6.788;2023-06-10T02:44:24;29.53;;;27.97;;
908;SDS011;441;51.192;6.788;2023-06-10T02:46:52;29.00;;;27.20;;
908;SDS011;441;51.192;6.788;2023-06-10T02:49:20;28.37;;;26.77;;
908;SDS011;441;51.192;6.788;2023-06-10T02:51:49;28.70;;;27.10;;
908;SDS011;441;51.192;6.788;2023-06-10T02:54:21;29.70;;;27.60;;
908;SDS011;441;51.192;6.788;2023-06-10T02:56:53;29.30;;;27.60;;
908;SDS011;441;51.192;6.788;2023-06-10T02:59:41;29.07;;;27.57;;
908;SDS011;441;51.192;6.788;2023-06-10T03:02:10;28.90;;;27.30;;
908;SDS011;441;51.192;6.788;2023-06-10T03:04:37;28.57;;;26.97;;
908;SDS011;441;51.192;6.788;2023-06-10T03:07:04;29.00;;;27.40;;
908;SDS011;441;51.192;6.788;2023-06-10T03:09:32;28.97;;;27.50;;
908;SDS011;441;51.192;6.788;2023-06-10T03:11:59;28.50;;;27.00;;
908;SDS011;441;51.192;6.788;2023-06-10T03:14:26;28.90;;;27.03;;
908;SDS011;441;51.192;6.788;2023-06-10T03:16:53;28.57;;;26.97;;
908;SDS011;441;51.192;6.788;2023-06-10T03:19:22;27.27;;;25.90;;
908;SDS011;441;51.192;6.788;2023-06-10T03:21:49;29.23;;;27.30;;
908;SDS011;441;51.192;6.788;2023-06-10T03:24:26;28.77;;;27.17;;
908;SDS011;441;51.192;6.788;2023-06-10T03:26:53;28.60;;;27.00;;
908;SDS011;441;51.192;6.788;2023-06-10T03:29:19;28.67;;;26.97;;
908;SDS011;441;51.192;6.788;2023-06-10T03:31:46;27.93;;;26.43;;
908;SDS011;441;51.192;6.788;2023-06-10T03:34:13;29.40;;;27.70;;
908;SDS011;441;51.192;6.788;2023-06-10T03:36:41;29.17;;;27.40;;
908;SDS011;441;51.192;6.788;2023-06-10T03:39:08;28.40;;;26.90;;
908;SDS011;441;51.192;6.788;2023-06-10T03:41:36;29.10;;;27.47;;
908;SDS011;441;51.192;6.788;2023-06-10T03:44:03;27.90;;;26.40;;
908;SDS011;441;51.192;6.788;2023-06-10T03:46:31;28.77;;;27.10;;
908;SDS011;441;51.192;6.788;2023-06-10T03:48:57;28.50;;;27.00;;
908;SDS011;441;51.192;6.788;2023-06-10T03:51:25;27.33;;;25.93;;
908;SDS011;441;51.192;6.788;2023-06-10T03:53:54;27.90;;;26.20;;
908;SDS011;441;51.192;6.788;2023-06-10T03:56:20;27.70;;;26.07;;
908;SDS011;441;51.192;6.788;2023-06-10T03:58:47;28.13;;;26.63;;
908;SDS011;441;51.192;6.788;2023-06-10T04:01:14;28.83;;;27.33;;
908;SDS011;441;51.192;6.788;2023-06-10T04:03:43;28.00;;;26.60;;
908;SDS011;441;51.192;6.788;2023-06-10T04:06:10;28.50;;;27.10;;
908;SDS011;441;51.192;6.788;2023-06-10T04:08:36;28.13;;;26.73;;
908;SDS011;441;51.192;6.788;2023-06-10T04:11:05;29.17;;;27.47;;
908;SDS011;441;51.192;6.788;2023-06-10T04:13:32;29.43;;;27.83;;
908;SDS011;441;51.192;6.788;2023-06-10T04:15:59;30.27;;;28.40;;
908;SDS011;441;51.192;6.788;2023-06-10T04:18:26;29.37;;;27.77;;
908;SDS011;441;51.192;6.788;2023-06-10T04:20:53;29.10;;;27.50;;
908;SDS011;441;51.192;6.788;2023-06-10T04:23:20;29.27;;;27.67;;
908;SDS011;441;51.192;6.788;2023-06-10T04:25:47;30.30;;;28.70;;
908;SDS011;441;51.192;6.788;2023-06-10T04:28:15;28.97;;;27.50;;
908;SDS011;441;51.192;6.788;2023-06-10T04:30:42;27.90;;;26.60;;
908;SDS011;441;51.192;6.788;2023-06-10T04:33:10;29.13;;;27.53;;
908;SDS011;441;51.192;6.788;2023-06-10T04:35:36;28.20;;;26.70;;
908;SDS011;441;51.192;6.788;2023-06-10T04:38:03;28.37;;;26.90;;
908;SDS011;441;51.192;6.788;2023-06-10T04:40:30;28.80;;;27.00;;
908;SDS011;441;51.192;6.788;2023-06-10T04:42:57;28.47;;;26.70;;
908;SDS011;441;51.192;6.788;2023-06-10T04:45:26;27.40;;;25.90;;
908;SDS011;441;51.192;6.788;2023-06-10T04:47:53;28.93;;;27.20;;
908;SDS011;441;51.192;6.788;2023-06-10T04:50:21;27.83;;;26.33;;
908;SDS011;441;51.192;6.788;2023-06-10T04:52:47;28.43;;;26.83;;
908;SDS011;441;51.192;6.788;2023-06-10T04:55:15;27.30;;;25.90;;
908;SDS011;441;51.192;6.788;2023-06-10T04:57:42;27.40;;;26.00;;
908;SDS011;441;51.192;6.788;2023-06-10T05:00:09;27.70;;;26.30;;
908;SDS011;441;51.192;6.788;2023-06-10T05:02:38;27.63;;;26.03;;
908;SDS011;441;51.192;6.788;2023-06-10T05:05:05;27.20;;;25.80;;
908;SDS011;441;51.192;6.788;2023-06-10T05:07:33;27.10;;;25.53;;
908;SDS011;441;51.192;6.788;2023-06-10T05:10:00;27.53;;;26.07;;
908;SDS011;441;51.192;6.788;2023-06-10T05:12:28;27.57;;;26.10;;
908;SDS011;441;51.192;6.788;2023-06-10T05:14:54;27.53;;;26.00;;
908;SDS011;441;51.192;6.788;2023-06-10T05:17:21;27.93;;;26.43;;
908;SDS011;441;51.192;6.788;2023-06-10T05:19:51;27.37;;;25.87;;
908;SDS011;441;51.192;6.788;2023-06-10T05:22:18;26.97;;;25.57;;
908;SDS011;441;51.192;6.788;2023-06-10T05:24:45;26.87;;;25.47;;
908;SDS011;441;51.192;6.788;2023-06-10T05:27:12;27.77;;;26.23;;
908;SDS011;441;51.192;6.788;2023-06-10T05:29:39;27.27;;;25.90;;
908;SDS011;441;51.192;6.788;2023-06-10T05:32:07;27.63;;;26.23;;
908;SDS011;441;51.192;6.788;2023-06-10T05:34:34;27.17;;;25.77;;
908;SDS011;441;51.192;6.788;2023-06-10T05:37:03;27.17;;;25.87;;
908;SDS011;441;51.192;6.788;2023-06-10T05:39:30;29.20;;;27.60;;
908;SDS011;441;51.192;6.788;2023-06-10T05:41:57;28.07;;;26.47;;
908;SDS011;441;51.192;6.788;2023-06-10T05:44:26;28.10;;;26.60;;
908;SDS011;441;51.192;6.788;2023-06-10T05:46:53;28.97;;;27.30;;
908;SDS011;441;51.192;6.788;2023-06-10T05:49:20;28.40;;;26.97;;
908;SDS011;441;51.192;6.788;2023-06-10T05:51:46;27.77;;;26.10;;
908;SDS011;441;51.192;6.788;2023-06-10T05:54:15;27.83;;;26.17;;
908;SDS011;441;51.192;6.788;2023-06-10T05:56:42;27.13;;;25.70;;
908;SDS011;441;51.192;6.788;2023-06-10T05:59:09;27.73;;;26.27;;
908;SDS011;441;51.192;6.788;2023-06-10T06:01:36;28.87;;;27.37;;
908;SDS011;441;51.192;6.788;2023-06-10T06:04:03;28.53;;;27.07;;
908;SDS011;441;51.192;6.788;2023-06-10T06:06:30;29.10;;;27.50;;
908;SDS011;441;51.192;6.788;2023-06-10T06:08:56;27.53;;;26.13;;
908;SDS011;441;51.192;6.788;2023-06-10T06:11:25;28.83;;;26.93;;
908;SDS011;441;51.192;6.788;2023-06-10T06:13:52;26.53;;;25.23;;
908;SDS011;441;51.192;6.788;2023-06-10T06:16:19;27.90;;;26.40;;
908;SDS011;441;51.192;6.788;2023-06-10T06:18:45;28.20;;;26.80;;
908;SDS011;441;51.192;6.788;2023-06-10T06:21:12;28.17;;;26.87;;
908;SDS011;441;51.192;6.788;2023-06-10T06:23:39;28.07;;;26.57;;
908;SDS011;441;51.192;6.788;2023-06-10T06:26:06;27.23;;;25.83;;
908;SDS011;441;51.192;6.788;2023-06-10T06:28:34;27.23;;;25.93;;
908;SDS011;441;51.192;6.788;2023-06-10T06:31:01;27.87;;;26.37;;
908;SDS011;441;51.192;6.788;2023-06-10T06:33:29;26.57;;;25.20;;
908;SDS011;441;51.192;6.788;2023-06-10T06:35:56;27.03;;;25.63;;
908;SDS011;441;51.192;6.788;2023-06-10T06:38:22;26.80;;;25.37;;
908;SDS011;441;51.192;6.788;2023-06-10T06:40:49;27.50;;;25.90;;
908;SDS011;441;51.192;6.788;2023-06-10T06:43:16;26.63;;;25.23;;
908;SDS011;441;51.192;6.788;2023-06-10T06:45:44;27.43;;;26.00;;
908;SDS011;441;51.192;6.788;2023-06-10T06:48:12;27.27;;;25.97;;
908;SDS011;441;51.192;6.788;2023-06-10T06:50:39;27.10;;;25.67;;
908;SDS011;441;51.192;6.788;2023-06-10T06:53:07;27.23;;;25.87;;
908;SDS011;441;51.192;6.788;2023-06-10T06:55:34;27.73;;;26.30;;
908;SDS011;441;51.192;6.788;2023-06-10T06:58:00;28.30;;;26.97;;
908;SDS011;441;51.192;6.788;2023-06-10T07:00:29;27.33;;;26.03;;
908;SDS011;441;51.192;6.788;2023-06-10T07:02:57;26.70;;;25.40;;
908;SDS011;441;51.192;6.788;2023-06-10T07:05:24;27.00;;;25.60;;
908;SDS011;441;51.192;6.788;2023-06-10T07:07:52;26.67;;;25.27;;
908;SDS011;441;51.192;6.788;2023-06-10T07:10:20;28.37;;;26.97;;
908;SDS011;441;51.192;6.788;2023-06-10T07:12:47;27.53;;;26.20;;
908;SDS011;441;51.192;6.788;2023-06-10T07:15:14;28.30;;;26.90;;
908;SDS011;441;51.192;6.788;2023-06-10T07:17:41;27.60;;;26.20;;
908;SDS011;441;51.192;6.788;2023-06-10T07:20:10;28.50;;;27.10;;
908;SDS011;441;51.192;6.788;2023-06-10T07:22:38;29.47;;;27.87;;
908;SDS011;441;51.192;6.788;2023-06-10T07:25:06;30.43;;;28.43;;
908;SDS011;441;51.192;6.788;2023-06-10T07:27:33;27.40;;;26.03;;
908;SDS011;441;51.192;6.788;2023-06-10T07:30:01;27.93;;;26.53;;
908;SDS011;441;51.192;6.788;2023-06-10T07:32:28;29.97;;;28.00;;
908;SDS011;441;51.192;6.788;2023-06-10T07:34:55;30.53;;;28.83;;
908;SDS011;441;51.192;6.788;2023-06-10T07:37:23;30.20;;;28.30;;
908;SDS011;441;51.192;6.788;2023-06-10T07:39:50;29.10;;;27.10;;
908;SDS011;441;51.192;6.788;2023-06-10T07:42:17;28.80;;;27.33;;
908;SDS011;441;51.192;6.788;2023-06-10T07:44:43;29.10;;;27.60;;
908;SDS011;441;51.192;6.788;2023-06-10T07:47:10;28.27;;;26.57;;
908;SDS011;441;51.192;6.788;2023-06-10T07:49:37;28.80;;;27.40;;
908;SDS011;441;51.192;6.788;2023-06-10T07:52:05;28.77;;;27.17;;
908;SDS011;441;51.192;6.788;2023-06-10T07:54:34;29.57;;;27.97;;
908;SDS011;441;51.192;6.788;2023-06-10T07:57:01;29.00;;;27.50;;
908;SDS011;441;51.192;6.788;2023-06-10T07:59:27;28.40;;;26.90;;
908;SDS011;441;51.192;6.788;2023-06-10T08:01:54;28.87;;;27.37;;
908;SDS011;441;51.192;6.788;2023-06-10T08:04:21;29.40;;;27.80;;
908;SDS011;441;51.192;6.788;2023-06-10T08:06:48;29.47;;;27.87;;
908;SDS011;441;51.192;6.788;2023-06-10T08:09:15;29.03;;;27.43;;
908;SDS011;441;51.192;6.788;2023-06-10T08:11:44;29.23;;;27.43;;
908;SDS011;441;51.192;6.788;2023-06-10T08:14:12;29.70;;;27.37;;
908;SDS011;441;51.192;6.788;2023-06-10T08:16:39;29.87;;;28.20;;
908;SDS011;441;51.192;6.788;2023-06-10T08:19:06;29.57;;;28.07;;
908;SDS011;441;51.192;6.788;2023-06-10T08:21:34;31.33;;;29.33;;
908;SDS011;441;51.192;6.788;2023-06-10T08:24:01;30.17;;;28.37;;
908;SDS011;441;51.192;6.788;2023-06-10T08:26:28;30.83;;;28.97;;
908;SDS011;441;51.192;6.788;2023-06-10T08:28:57;29.27;;;27.67;;
908;SDS011;441;51.192;6.788;2023-06-10T08:31:23;29.70;;;28.20;;
908;SDS011;441;51.192;6.788;2023-06-10T08:33:50;28.97;;;27.27;;
908;SDS011;441;51.192;6.788;2023-06-10T08:36:17;30.03;;;28.53;;
908;SDS011;441;51.192;6.788;2023-06-10T08:38:44;28.43;;;27.03;;
908;SDS011;441;51.192;6.788;2023-06-10T08:41:12;28.00;;;26.50;;
908;SDS011;441;51.192;6.788;2023-06-10T08:43:44;28.10;;;26.47;;
908;SDS011;441;51.192;6.788;2023-06-10T08:46:15;28.40;;;27.00;;
908;SDS011;441;51.192;6.788;2023-06-10T08:48:43;28.70;;;27.30;;
908;SDS011;441;51.192;6.788;2023-06-10T08:51:10;26.70;;;25.40;;
908;SDS011;441;51.192;6.788;2023-06-10T08:53:38;28.93;;;27.37;;
908;SDS011;441;51.192;6.788;2023-06-10T08:56:10;27.93;;;26.50;;
908;SDS011;441;51.192;6.788;2023-06-10T08:58:38;27.73;;;26.33;;
908;SDS011;441;51.192;6.788;2023-06-10T09:01:07;27.97;;;26.37;;
908;SDS011;441;51.192;6.788;2023-06-10T09:03:36;27.70;;;26.30;;
908;SDS011;441;51.192;6.788;2023-06-10T09:06:04;29.10;;;27.50;;
908;SDS011;441;51.192;6.788;2023-06-10T09:08:33;27.87;;;26.47;;
908;SDS011;441;51.192;6.788;2023-06-10T09:11:00;27.90;;;26.60;;
908;SDS011;441;51.192;6.788;2023-06-10T09:13:27;28.60;;;27.20;;
908;SDS011;441;51.192;6.788;2023-06-10T09:15:55;27.20;;;25.90;;
908;SDS011;441;51.192;6.788;2023-06-10T09:18:25;28.07;;;26.37;;
908;SDS011;441;51.192;6.788;2023-06-10T09:20:54;29.33;;;27.73;;
908;SDS011;441;51.192;6.788;2023-06-10T09:23:21;28.90;;;27.40;;
908;SDS011;441;51.192;6.788;2023-06-10T09:25:55;29.90;;;28.47;;
908;SDS011;441;51.192;6.788;2023-06-10T09:28:22;30.17;;;28.40;;
908;SDS011;441;51.192;6.788;2023-06-10T09:30:50;29.47;;;28.00;;
908;SDS011;441;51.192;6.788;2023-06-10T09:33:28;27.97;;;26.47;;
908;SDS011;441;51.192;6.788;2023-06-10T09:35:56;28.80;;;27.30;;
908;SDS011;441;51.192;6.788;2023-06-10T09:38:29;29.43;;;27.83;;
908;SDS011;441;51.192;6.788;2023-06-10T09:40:56;29.83;;;28.30;;
908;SDS011;441;51.192;6.788;2023-06-10T09:43:24;29.50;;;27.90;;
908;SDS011;441;51.192;6.788;2023-06-10T09:46:05;29.87;;;28.37;;
908;SDS011;441;51.192;6.788;2023-06-10T09:48:34;29.23;;;27.73;;
908;SDS011;441;51.192;6.788;2023-06-10T09:51:03;29.30;;;27.80;;
908;SDS011;441;51.192;6.788;2023-06-10T09:53:35;29.53;;;28.03;;
908;SDS011;441;51.192;6.788;2023-06-10T09:56:02;29.17;;;27.67;;
908;SDS011;441;51.192;6.788;2023-06-10T09:58:35;29.07;;;27.57;;
908;SDS011;441;51.192;6.788;2023-06-10T10:01:06;28.87;;;27.37;;
908;SDS011;441;51.192;6.788;2023-06-10T10:03:42;31.17;;;29.47;;
908;SDS011;441;51.192;6.788;2023-06-10T10:06:12;29.63;;;28.13;;
908;SDS011;441;51.192;6.788;2023-06-10T10:08:40;32.57;;;30.83;;
908;SDS011;441;51.192;6.788;2023-06-10T10:11:08;29.60;;;28.10;;
908;SDS011;441;51.192;6.788;2023-06-10T10:13:35;30.03;;;28.63;;
908;SDS011;441;51.192;6.788;2023-06-10T10:16:04;30.60;;;29.10;;
908;SDS011;441;51.192;6.788;2023-06-10T10:18:35;29.90;;;28.30;;
908;SDS011;441;51.192;6.788;2023-06-10T10:21:09;29.47;;;27.87;;
908;SDS011;441;51.192;6.788;2023-06-10T10:23:40;31.07;;;29.23;;
908;SDS011;441;51.192;6.788;2023-06-10T10:26:12;29.60;;;28.00;;
908;SDS011;441;51.192;6.788;2023-06-10T10:28:41;30.07;;;28.47;;
908;SDS011;441;51.192;6.788;2023-06-10T10:31:15;29.40;;;27.90;;
908;SDS011;441;51.192;6.788;2023-06-10T10:33:47;29.60;;;27.93;;
908;SDS011;441;51.192;6.788;2023-06-10T10:36:22;30.23;;;28.73;;
908;SDS011;441;51.192;6.788;2023-06-10T10:38:49;30.17;;;28.63;;
908;SDS011;441;51.192;6.788;2023-06-10T10:41:17;29.50;;;28.10;;
908;SDS011;441;51.192;6.788;2023-06-10T10:43:46;29.00;;;27.50;;
908;SDS011;441;51.192;6.788;2023-06-10T10:46:14;29.30;;;27.90;;
908;SDS011;441;51.192;6.788;2023-06-10T10:48:42;29.23;;;27.70;;
908;SDS011;441;51.192;6.788;2023-06-10T10:51:10;29.10;;;27.70;;
908;SDS011;441;51.192;6.788;2023-06-10T10:53:39;29.13;;;27.70;;
908;SDS011;441;51.192;6.788;2023-06-10T10:56:12;30.50;;;29.00;;
908;SDS011;441;51.192;6.788;2023-06-10T10:58:40;30.23;;;28.50;;
908;SDS011;441;51.192;6.788;2023-06-10T11:01:11;28.40;;;27.00;;
908;SDS011;441;51.192;6.788;2023-06-10T11:03:42;30.47;;;28.97;;
908;SDS011;441;51.192;6.788;2023-06-10T11:06:12;28.13;;;26.63;;
908;SDS011;441;51.192;6.788;2023-06-10T11:08:48;29.40;;;27.90;;
908;SDS011;441;51.192;6.788;2023-06-10T11:11:19;28.53;;;27.03;;
908;SDS011;441;51.192;6.788;2023-06-10T11:14:09;29.07;;;27.37;;
908;SDS011;441;51.192;6.788;2023-06-10T11:16:39;30.17;;;28.57;;
908;SDS011;441;51.192;6.788;2023-06-10T11:19:07;30.80;;;28.90;;
908;SDS011;441;51.192;6.788;2023-06-10T11:24:26;29.77;;;28.27;;
908;SDS011;441;51.192;6.788;2023-06-10T11:26:55;30.00;;;28.50;;
908;SDS011;441;51.192;6.788;2023-06-10T11:29:43;30.10;;;28.50;;
908;SDS011;441;51.192;6.788;2023-06-10T11:32:21;29.50;;;27.90;;
908;SDS011;441;51.192;6.788;2023-06-10T11:34:51;30.27;;;28.57;;
908;SDS011;441;51.192;6.788;2023-06-10T11:37:19;30.60;;;29.00;;
908;SDS011;441;51.192;6.788;2023-06-10T11:39:48;29.13;;;27.63;;
908;SDS011;441;51.192;6.788;2023-06-10T11:42:18;29.50;;;28.00;;
908;SDS011;441;51.192;6.788;2023-06-10T11:44:49;31.80;;;30.10;;
908;SDS011;441;51.192;6.788;2023-06-10T11:47:17;32.40;;;30.70;;
908;SDS011;441;51.192;6.788;2023-06-10T11:49:44;41.53;;;38.97;;
908;SDS011;441;51.192;6.788;2023-06-10T11:52:11;46.17;;;43.27;;
908;SDS011;441;51.192;6.788;2023-06-10T11:54:39;97.43;;;91.40;;
908;SDS011;441;51.192;6.788;2023-06-10T11:57:08;89.10;;;83.20;;
908;SDS011;441;51.192;6.788;2023-06-10T11:59:35;85.43;;;79.93;;
908;SDS011;441;51.192;6.788;2023-06-10T12:02:02;78.07;;;73.10;;
908;SDS011;441;51.192;6.788;2023-06-10T12:04:29;76.60;;;71.43;;
908;SDS011;441;51.192;6.788;2023-06-10T12:06:56;92.43;;;86.67;;
908;SDS011;441;51.192;6.788;2023-06-10T12:09:23;90.07;;;84.63;;
908;SDS011;441;51.192;6.788;2023-06-10T12:11:51;75.53;;;71.23;;
908;SDS011;441;51.192;6.788;2023-06-10T12:17:21;43.90;;;41.17;;
908;SDS011;441;51.192;6.788;2023-06-10T12:19:49;39.10;;;36.90;;
908;SDS011;441;51.192;6.788;2023-06-10T12:22:16;42.00;;;39.70;;
908;SDS011;441;51.192;6.788;2023-06-10T12:24:44;35.00;;;33.10;;
908;SDS011;441;51.192;6.788;2023-06-10T12:27:11;32.20;;;30.60;;
908;SDS011;441;51.192;6.788;2023-06-10T12:29:39;29.90;;;28.40;;
908;SDS011;441;51.192;6.788;2023-06-10T12:32:18;29.90;;;28.30;;
908;SDS011;441;51.192;6.788;2023-06-10T12:34:45;30.93;;;29.23;;
908;SDS011;441;51.192;6.788;2023-06-10T12:37:12;31.33;;;29.20;;
908;SDS011;441;51.192;6.788;2023-06-10T12:39:40;30.73;;;28.73;;
908;SDS011;441;51.192;6.788;2023-06-10T12:42:08;33.10;;;30.30;;
908;SDS011;441;51.192;6.788;2023-06-10T12:44:35;29.80;;;28.10;;
908;SDS011;441;51.192;6.788;2023-06-10T12:47:09;30.63;;;28.83;;
908;SDS011;441;51.192;6.788;2023-06-10T12:49:38;30.17;;;28.37;;
908;SDS011;441;51.192;6.788;2023-06-10T12:52:06;30.93;;;28.33;;
908;SDS011;441;51.192;6.788;2023-06-10T12:54:33;30.20;;;28.70;;
908;SDS011;441;51.192;6.788;2023-06-10T12:57:00;28.40;;;26.80;;
908;SDS011;441;51.192;6.788;2023-06-10T12:59:28;30.20;;;28.63;;
908;SDS011;441;51.192;6.788;2023-06-10T13:01:57;30.43;;;28.67;;
908;SDS011;441;51.192;6.788;2023-06-10T13:04:24;29.87;;;28.17;;
908;SDS011;441;51.192;6.788;2023-06-10T13:06:53;30.07;;;28.57;;
908;SDS011;441;51.192;6.788;2023-06-10T13:09:20;30.20;;;28.50;;
908;SDS011;441;51.192;6.788;2023-06-10T13:11:47;29.33;;;27.83;;
908;SDS011;441;51.192;6.788;2023-06-10T13:14:14;30.90;;;29.30;;
908;SDS011;441;51.192;6.788;2023-06-10T13:16:41;29.40;;;27.93;;
908;SDS011;441;51.192;6.788;2023-06-10T13:19:09;30.47;;;28.70;;
908;SDS011;441;51.192;6.788;2023-06-10T13:21:36;29.00;;;27.60;;
908;SDS011;441;51.192;6.788;2023-06-10T13:24:05;29.03;;;27.63;;
908;SDS011;441;51.192;6.788;2023-06-10T13:26:32;29.67;;;28.27;;
908;SDS011;441;51.192;6.788;2023-06-10T13:28:59;28.83;;;27.23;;
908;SDS011;441;51.192;6.788;2023-06-10T13:31:26;29.03;;;27.63;;
908;SDS011;441;51.192;6.788;2023-06-10T13:33:53;29.60;;;27.90;;
908;SDS011;441;51.192;6.788;2023-06-10T13:36:19;29.60;;;28.20;;
908;SDS011;441;51.192;6.788;2023-06-10T13:38:46;31.33;;;29.93;;
908;SDS011;441;51.192;6.788;2023-06-10T13:41:15;31.37;;;29.80;;
908;SDS011;441;51.192;6.788;2023-06-10T13:43:42;31.03;;;29.53;;
908;SDS011;441;51.192;6.788;2023-06-10T13:46:08;30.43;;;28.83;;
908;SDS011;441;51.192;6.788;2023-06-10T13:48:36;30.37;;;28.97;;
908;SDS011;441;51.192;6.788;2023-06-10T13:51:03;31.20;;;29.50;;
908;SDS011;441;51.192;6.788;2023-06-10T13:53:30;31.80;;;30.20;;
908;SDS011;441;51.192;6.788;2023-06-10T13:55:57;30.07;;;28.50;;
908;SDS011;441;51.192;6.788;2023-06-10T13:58:26;29.10;;;27.60;;
908;SDS011;441;51.192;6.788;2023-06-10T14:00:52;30.43;;;28.93;;
908;SDS011;441;51.192;6.788;2023-06-10T14:03:19;30.87;;;29.30;;
908;SDS011;441;51.192;6.788;2023-06-10T14:05:46;30.40;;;28.90;;
908;SDS011;441;51.192;6.788;2023-06-10T14:08:13;30.33;;;28.90;;
908;SDS011;441;51.192;6.788;2023-06-10T14:10:40;30.77;;;29.30;;
908;SDS011;441;51.192;6.788;2023-06-10T14:13:07;29.97;;;28.43;;
908;SDS011;441;51.192;6.788;2023-06-10T14:15:35;30.03;;;28.57;;
908;SDS011;441;51.192;6.788;2023-06-10T14:18:02;30.27;;;28.63;;
908;SDS011;441;51.192;6.788;2023-06-10T14:20:30;29.03;;;27.63;;
908;SDS011;441;51.192;6.788;2023-06-10T14:22:57;29.97;;;28.47;;
908;SDS011;441;51.192;6.788;2023-06-10T14:25:24;29.67;;;28.23;;
908;SDS011;441;51.192;6.788;2023-06-10T14:27:51;30.37;;;28.93;;
908;SDS011;441;51.192;6.788;2023-06-10T14:30:18;30.50;;;29.10;;
908;SDS011;441;51.192;6.788;2023-06-10T14:32:46;29.80;;;28.40;;
908;SDS011;441;51.192;6.788;2023-06-10T14:35:13;30.50;;;29.00;;
908;SDS011;441;51.192;6.788;2023-06-10T14:37:40;29.50;;;28.10;;
908;SDS011;441;51.192;6.788;2023-06-10T14:40:07;31.07;;;29.47;;
908;SDS011;441;51.192;6.788;2023-06-10T14:42:35;29.87;;;28.50;;
908;SDS011;441;51.192;6.788;2023-06-10T14:45:02;29.77;;;28.27;;
908;SDS011;441;51.192;6.788;2023-06-10T14:47:29;29.93;;;28.43;;
908;SDS011;441;51.192;6.788;2023-06-10T14:49:57;29.20;;;27.70;;
908;SDS011;441;51.192;6.788;2023-06-10T14:52:25;29.90;;;28.40;;
908;SDS011;441;51.192;6.788;2023-06-10T14:54:52;30.20;;;28.60;;
908;SDS011;441;51.192;6.788;2023-06-10T14:57:19;30.87;;;29.37;;
908;SDS011;441;51.192;6.788;2023-06-10T14:59:46;28.53;;;26.93;;
908;SDS011;441;51.192;6.788;2023-06-10T15:02:13;29.87;;;28.37;;
908;SDS011;441;51.192;6.788;2023-06-10T15:04:40;29.80;;;28.30;;
908;SDS011;441;51.192;6.788;2023-06-10T15:07:08;29.30;;;27.90;;
908;SDS011;441;51.192;6.788;2023-06-10T15:09:35;28.70;;;27.30;;
908;SDS011;441;51.192;6.788;2023-06-10T15:12:02;28.50;;;27.10;;
908;SDS011;441;51.192;6.788;2023-06-10T15:14:30;28.97;;;27.50;;
908;SDS011;441;51.192;6.788;2023-06-10T15:16:57;29.93;;;28.43;;
908;SDS011;441;51.192;6.788;2023-06-10T15:19:25;30.40;;;29.00;;
908;SDS011;441;51.192;6.788;2023-06-10T15:21:52;28.93;;;27.53;;
908;SDS011;441;51.192;6.788;2023-06-10T15:24:20;29.10;;;27.70;;
908;SDS011;441;51.192;6.788;2023-06-10T15:26:47;29.30;;;28.00;;